Time,TemperatureF,DewpointF,PressureIn,WindDirection,WindDirectionDegrees,WindSpeedMPH,WindSpeedGustMPH,Humidity,HourlyPrecipIn,Conditions,Clouds,dailyrainin,SolarRadiationWatts/m^2,SoftwareType,DateUTC
2013-06-28 00:02:00,62.0,61.0,-100.00,NNE,32,2.0,5.0,97,0.01,,,0.03,0.000000,,2013-06-28 04:02:00,
2013-06-28 00:33:00,62.0,61.0,-100.00,NNE,19,2.0,4.0,98,0.00,,,-99.99,0.000000,,2013-06-28 04:33:00,
2013-06-28 00:43:00,62.0,61.0,-100.00,NNE,19,2.0,4.0,98,0.00,,,-99.99,0.000000,,2013-06-28 04:43:00,
2013-06-28 00:53:00,62.0,61.0,-100.00,NNE,19,2.0,4.0,98,0.00,,,-99.99,0.000000,,2013-06-28 04:53:00,
2013-06-28 01:02:00,62.0,61.0,-100.00,NNE,19,2.0,4.0,98,0.00,,,-99.99,0.000000,,2013-06-28 05:02:00,
2013-06-28 01:33:00,61.0,60.0,-100.00,NE,41,1.0,5.0,98,0.00,,,0.03,0.000000,,2013-06-28 05:33:00,
2013-06-28 01:43:00,61.0,60.0,-100.00,NE,41,1.0,5.0,98,0.00,,,0.03,0.000000,,2013-06-28 05:43:00,
2013-06-28 01:53:00,61.0,60.0,-100.00,NE,41,1.0,5.0,98,0.00,,,0.03,0.000000,,2013-06-28 05:53:00,
2013-06-28 02:02:00,61.0,60.0,-100.00,NE,41,1.0,5.0,98,0.00,,,0.03,0.000000,,2013-06-28 06:02:00,
2013-06-28 02:34:00,61.0,60.0,-100.00,NNE,28,2.0,7.0,98,0.01,,,0.03,0.000000,,2013-06-28 06:34:00,
2013-06-28 02:43:00,61.0,60.0,-100.00,NNE,28,2.0,7.0,98,0.01,,,0.03,0.000000,,2013-06-28 06:43:00,
2013-06-28 02:52:00,61.0,60.0,-100.00,NNE,28,2.0,7.0,98,0.01,,,0.03,0.000000,,2013-06-28 06:52:00,
2013-06-28 03:01:00,61.0,60.0,-100.00,NNE,28,2.0,7.0,98,0.01,,,0.03,0.000000,,2013-06-28 07:01:00,
2013-06-28 03:33:00,60.0,59.0,-100.00,North,11,3.0,8.0,97,0.01,,,0.04,0.000000,,2013-06-28 07:33:00,
2013-06-28 03:43:00,60.0,59.0,-100.00,North,11,3.0,8.0,97,0.01,,,0.04,0.000000,,2013-06-28 07:43:00,
2013-06-28 03:52:00,60.0,59.0,-100.00,North,11,3.0,8.0,97,0.01,,,0.04,0.000000,,2013-06-28 07:52:00,
2013-06-28 04:02:00,60.0,59.0,-100.00,North,11,3.0,8.0,97,0.01,,,0.04,0.000000,,2013-06-28 08:02:00,
2013-06-28 04:33:00,58.0,57.0,-100.00,North,2,1.0,9.0,98,0.06,,,0.09,0.000000,,2013-06-28 08:33:00,
2013-06-28 04:43:00,58.0,57.0,-100.00,North,2,1.0,9.0,98,0.06,,,0.09,0.000000,,2013-06-28 08:43:00,
2013-06-28 04:52:00,58.0,57.0,-100.00,North,2,1.0,9.0,98,0.06,,,0.09,0.000000,,2013-06-28 08:52:00,
2013-06-28 05:02:00,58.0,57.0,-100.00,North,2,1.0,9.0,98,0.06,,,0.09,0.000000,,2013-06-28 09:02:00,
2013-06-28 05:33:00,58.0,57.0,-100.00,NNE,15,4.0,9.0,98,0.05,,,0.14,0.000000,,2013-06-28 09:33:00,
2013-06-28 05:42:00,58.0,57.0,-100.00,NNE,15,4.0,9.0,98,0.05,,,0.14,0.000000,,2013-06-28 09:42:00,
2013-06-28 05:52:00,58.0,57.0,-100.00,NNE,15,4.0,9.0,98,0.05,,,0.14,0.000000,,2013-06-28 09:52:00,
2013-06-28 06:02:00,58.0,57.0,-100.00,NNE,15,4.0,9.0,98,0.05,,,0.14,0.000000,,2013-06-28 10:02:00,
2013-06-28 06:33:00,58.0,58.0,-100.00,North,353,2.0,10.0,99,0.33,,,0.47,1.000000,,2013-06-28 10:33:00,
2013-06-28 06:42:00,58.0,58.0,-100.00,North,353,2.0,10.0,99,0.33,,,0.47,1.000000,,2013-06-28 10:42:00,
2013-06-28 06:52:00,58.0,58.0,-100.00,North,353,2.0,10.0,99,0.33,,,0.47,1.000000,,2013-06-28 10:52:00,
2013-06-28 07:02:00,58.0,58.0,-100.00,North,353,2.0,10.0,99,0.33,,,0.47,1.000000,,2013-06-28 11:02:00,
2013-06-28 07:34:00,58.0,58.0,-100.00,NNE,27,2.0,6.0,99,0.21,,,0.68,7.000000,,2013-06-28 11:34:00,
2013-06-28 07:43:00,58.0,58.0,-100.00,NNE,27,2.0,6.0,99,0.21,,,0.68,7.000000,,2013-06-28 11:43:00,
2013-06-28 07:53:00,58.0,58.0,-100.00,NNE,27,2.0,6.0,99,0.21,,,0.68,7.000000,,2013-06-28 11:53:00,
2013-06-28 08:02:00,58.0,58.0,-100.00,NNE,27,2.0,6.0,99,0.21,,,0.68,7.000000,,2013-06-28 12:02:00,
2013-06-28 08:34:00,58.0,58.0,-100.00,NNE,23,2.0,4.0,99,0.06,,,0.74,15.000000,,2013-06-28 12:34:00,
2013-06-28 08:43:00,58.0,58.0,-100.00,NNE,23,2.0,4.0,99,0.06,,,0.74,15.000000,,2013-06-28 12:43:00,
2013-06-28 08:52:00,58.0,58.0,-100.00,NNE,23,2.0,4.0,99,0.06,,,0.74,15.000000,,2013-06-28 12:52:00,
2013-06-28 09:01:00,58.0,58.0,-100.00,NNE,23,2.0,4.0,99,0.06,,,0.74,15.000000,,2013-06-28 13:01:00,
2013-06-28 09:43:00,58.0,58.0,-100.00,NNE,25,2.0,6.0,99,0.03,,,0.77,29.000000,,2013-06-28 13:43:00,
2013-06-28 09:53:00,58.0,58.0,-100.00,NNE,25,2.0,6.0,99,0.03,,,0.77,29.000000,,2013-06-28 13:53:00,
2013-06-28 10:02:00,58.0,58.0,-100.00,NNE,25,2.0,6.0,99,0.03,,,0.77,29.000000,,2013-06-28 14:02:00,
2013-06-28 10:33:00,58.0,58.0,-100.00,NNE,23,2.0,7.0,99,0.06,,,0.83,27.000000,,2013-06-28 14:33:00,
2013-06-28 10:44:00,58.0,58.0,-100.00,NNE,23,2.0,7.0,99,0.06,,,0.83,27.000000,,2013-06-28 14:44:00,
2013-06-28 10:53:00,58.0,58.0,-100.00,NNE,23,2.0,7.0,99,0.06,,,0.83,27.000000,,2013-06-28 14:53:00,
2013-06-28 11:02:00,58.0,58.0,-100.00,NNE,23,2.0,7.0,99,0.06,,,0.83,27.000000,,2013-06-28 15:02:00,
2013-06-28 11:34:00,59.0,59.0,-100.00,North,358,2.0,9.0,99,0.07,,,0.90,47.000000,,2013-06-28 15:34:00,
2013-06-28 11:43:00,59.0,59.0,-100.00,North,358,2.0,9.0,99,0.07,,,0.90,47.000000,,2013-06-28 15:43:00,
2013-06-28 11:52:00,59.0,59.0,-100.00,North,358,2.0,9.0,99,0.07,,,0.90,47.000000,,2013-06-28 15:52:00,
2013-06-28 12:02:00,59.0,59.0,-100.00,North,358,2.0,9.0,99,0.07,,,0.90,47.000000,,2013-06-28 16:02:00,
2013-06-28 12:44:00,61.0,60.0,-100.00,North,2,1.0,5.0,98,0.09,,,0.99,108.000000,,2013-06-28 16:44:00,
2013-06-28 12:53:00,61.0,60.0,-100.00,North,2,1.0,5.0,98,0.09,,,0.99,108.000000,,2013-06-28 16:53:00,
2013-06-28 13:02:00,61.0,60.0,-100.00,North,2,1.0,5.0,98,0.09,,,0.99,108.000000,,2013-06-28 17:02:00,
2013-06-28 13:33:00,61.0,60.0,-100.00,NE,36,3.0,6.0,97,0.04,,,1.03,128.000000,,2013-06-28 17:33:00,
2013-06-28 13:44:00,61.0,60.0,-100.00,NE,36,3.0,6.0,97,0.04,,,1.03,128.000000,,2013-06-28 17:44:00,
2013-06-28 13:52:00,61.0,60.0,-100.00,NE,36,3.0,6.0,97,0.04,,,1.03,128.000000,,2013-06-28 17:52:00,
2013-06-28 14:02:00,61.0,60.0,-100.00,NE,36,3.0,6.0,97,0.04,,,1.03,128.000000,,2013-06-28 18:02:00,
2013-06-28 14:43:00,62.0,61.0,-100.00,ENE,71,2.0,4.0,95,0.01,,,1.04,91.000000,,2013-06-28 18:43:00,
2013-06-28 14:52:00,62.0,61.0,-100.00,ENE,71,2.0,4.0,95,0.01,,,1.04,91.000000,,2013-06-28 18:52:00,
2013-06-28 15:01:00,62.0,61.0,-100.00,ENE,71,2.0,4.0,95,0.01,,,1.04,91.000000,,2013-06-28 19:01:00,
2013-06-28 15:43:00,62.0,61.0,-100.00,ENE,57,2.0,4.0,95,0.01,,,1.05,104.000000,,2013-06-28 19:43:00,
2013-06-28 15:53:00,62.0,61.0,-100.00,ENE,57,2.0,4.0,95,0.01,,,1.05,104.000000,,2013-06-28 19:53:00,
2013-06-28 16:02:00,62.0,61.0,-100.00,ENE,57,2.0,4.0,95,0.01,,,1.05,104.000000,,2013-06-28 20:02:00,
2013-06-28 16:33:00,64.0,62.0,-100.00,NE,51,1.0,5.0,94,0.00,,,1.05,121.000000,,2013-06-28 20:33:00,
2013-06-28 16:43:00,64.0,62.0,-100.00,NE,51,1.0,5.0,94,0.00,,,1.05,121.000000,,2013-06-28 20:43:00,
2013-06-28 16:52:00,64.0,62.0,-100.00,NE,51,1.0,5.0,94,0.00,,,1.05,121.000000,,2013-06-28 20:52:00,
2013-06-28 17:02:00,64.0,62.0,-100.00,NE,51,1.0,5.0,94,0.00,,,1.05,121.000000,,2013-06-28 21:02:00,
2013-06-28 17:34:00,65.0,62.0,-100.00,North,9,1.0,3.0,91,0.00,,,1.05,137.000000,,2013-06-28 21:34:00,
2013-06-28 17:43:00,65.0,62.0,-100.00,North,9,1.0,3.0,91,0.00,,,1.05,137.000000,,2013-06-28 21:43:00,
2013-06-28 17:53:00,65.0,62.0,-100.00,North,9,1.0,3.0,91,0.00,,,1.05,137.000000,,2013-06-28 21:53:00,
2013-06-28 18:01:00,65.0,62.0,-100.00,North,9,1.0,3.0,91,0.00,,,1.05,137.000000,,2013-06-28 22:01:00,
2013-06-28 18:34:00,63.0,62.0,-100.00,NNE,32,1.0,3.0,97,0.00,,,1.05,56.000000,,2013-06-28 22:34:00,
2013-06-28 18:43:00,63.0,62.0,-100.00,NNE,32,1.0,3.0,97,0.00,,,1.05,56.000000,,2013-06-28 22:43:00,
2013-06-28 18:53:00,63.0,62.0,-100.00,NNE,32,1.0,3.0,97,0.00,,,1.05,56.000000,,2013-06-28 22:53:00,
2013-06-28 19:02:00,63.0,62.0,-100.00,NNE,32,1.0,3.0,97,0.00,,,1.05,56.000000,,2013-06-28 23:02:00,
2013-06-28 19:34:00,63.0,62.0,-100.00,WNW,301,2.0,3.0,98,0.00,,,1.05,16.000000,,2013-06-28 23:34:00,
2013-06-28 19:43:00,63.0,62.0,-100.00,WNW,301,2.0,3.0,98,0.00,,,1.05,16.000000,,2013-06-28 23:43:00,
2013-06-28 19:53:00,63.0,62.0,-100.00,WNW,301,2.0,3.0,98,0.00,,,1.05,16.000000,,2013-06-28 23:53:00,
2013-06-28 20:02:00,63.0,62.0,-100.00,WNW,301,2.0,3.0,98,0.00,,,1.05,16.000000,,2013-06-29 00:02:00,
2013-06-28 20:33:00,63.0,63.0,-100.00,SSW,194,1.0,2.0,99,0.00,,,1.05,5.000000,,2013-06-29 00:33:00,
2013-06-28 20:42:00,63.0,63.0,-100.00,SSW,194,1.0,2.0,99,0.00,,,1.05,5.000000,,2013-06-29 00:42:00,
2013-06-28 20:52:00,63.0,63.0,-100.00,SSW,194,1.0,2.0,99,0.00,,,1.05,5.000000,,2013-06-29 00:52:00,
2013-06-28 21:01:00,63.0,63.0,-100.00,SSW,194,1.0,2.0,99,0.00,,,1.05,5.000000,,2013-06-29 01:01:00,
2013-06-28 21:32:00,62.0,62.0,-100.00,East,83,1.0,3.0,99,0.05,,,1.10,0.000000,,2013-06-29 01:32:00,
2013-06-28 21:42:00,62.0,62.0,-100.00,East,83,1.0,3.0,99,0.05,,,1.10,0.000000,,2013-06-29 01:42:00,
2013-06-28 21:52:00,62.0,62.0,-100.00,East,83,1.0,3.0,99,0.05,,,1.10,0.000000,,2013-06-29 01:52:00,
2013-06-28 22:01:00,62.0,62.0,-100.00,East,83,1.0,3.0,99,0.05,,,1.10,0.000000,,2013-06-29 02:01:00,
2013-06-28 22:31:00,62.0,62.0,-100.00,West,263,1.0,4.0,99,0.01,,,1.11,0.000000,,2013-06-29 02:31:00,
2013-06-28 22:41:00,62.0,62.0,-100.00,West,263,1.0,4.0,99,0.01,,,1.11,0.000000,,2013-06-29 02:41:00,
2013-06-28 22:51:00,62.0,62.0,-100.00,West,263,1.0,4.0,99,0.01,,,1.11,0.000000,,2013-06-29 02:51:00,
2013-06-28 23:01:00,62.0,62.0,-100.00,West,263,1.0,4.0,99,0.01,,,1.11,0.000000,,2013-06-29 03:01:00,
2013-06-28 23:32:00,62.0,62.0,-100.00,NNW,337,0.0,2.0,99,0.00,,,1.10,0.000000,,2013-06-29 03:32:00,
2013-06-28 23:41:00,62.0,62.0,-100.00,NNW,337,0.0,2.0,99,0.00,,,1.10,0.000000,,2013-06-29 03:41:00,
2013-06-28 23:51:00,62.0,62.0,-100.00,NNW,337,0.0,2.0,99,0.00,,,1.10,0.000000,,2013-06-29 03:51:00,